sensor_id;sensor_type;location;lat;lon;timestamp;P1;durP1;ratioP1;P2;durP2;ratioP2
55268;SDS011;41131;42.990;21.954;2023-04-10T00:01:24;49.30;;;39.38;;
55268;SDS011;41131;42.990;21.954;2023-04-10T00:03:50;52.10;;;40.17;;
55268;SDS011;41131;42.990;21.954;2023-04-10T00:06:16;46.72;;;39.45;;
55268;SDS011;41131;42.990;21.954;2023-04-10T00:08:42;49.85;;;39.85;;
55268;SDS011;41131;42.990;21.954;2023-04-10T00:11:08;56.10;;;41.80;;
55268;SDS011;41131;42.990;21.954;2023-04-10T00:13:35;54.22;;;41.60;;
55268;SDS011;41131;42.990;21.954;2023-04-10T00:16:01;61.03;;;44.53;;
55268;SDS011;41131;42.990;21.954;2023-04-10T00:18:27;61.53;;;43.28;;
55268;SDS011;41131;42.990;21.954;2023-04-10T00:20:53;45.38;;;34.80;;
55268;SDS011;41131;42.990;21.954;2023-04-10T00:23:21;47.25;;;37.60;;
55268;SDS011;41131;42.990;21.954;2023-04-10T00:25:48;50.72;;;40.05;;
55268;SDS011;41131;42.990;21.954;2023-04-10T00:28:14;51.78;;;37.85;;
55268;SDS011;41131;42.990;21.954;2023-04-10T00:30:41;51.55;;;39.33;;
55268;SDS011;41131;42.990;21.954;2023-04-10T00:33:07;56.15;;;43.03;;
55268;SDS011;41131;42.990;21.954;2023-04-10T00:35:33;54.90;;;40.90;;
55268;SDS011;41131;42.990;21.954;2023-04-10T00:37:59;54.00;;;41.10;;
55268;SDS011;41131;42.990;21.954;2023-04-10T00:40:25;52.72;;;38.83;;
55268;SDS011;41131;42.990;21.954;2023-04-10T00:42:54;51.53;;;39.20;;
55268;SDS011;41131;42.990;21.954;2023-04-10T00:45:20;50.42;;;39.42;;
55268;SDS011;41131;42.990;21.954;2023-04-10T00:47:46;48.38;;;38.55;;
55268;SDS011;41131;42.990;21.954;2023-04-10T00:50:12;50.20;;;38.45;;
55268;SDS011;41131;42.990;21.954;2023-04-10T00:52:38;54.28;;;42.40;;
55268;SDS011;41131;42.990;21.954;2023-04-10T00:55:05;55.38;;;42.75;;
55268;SDS011;41131;42.990;21.954;2023-04-10T00:57:31;61.45;;;47.15;;
55268;SDS011;41131;42.990;21.954;2023-04-10T00:59:58;52.15;;;40.60;;
55268;SDS011;41131;42.990;21.954;2023-04-10T01:02:24;54.95;;;42.63;;
55268;SDS011;41131;42.990;21.954;2023-04-10T01:04:50;53.92;;;43.00;;
55268;SDS011;41131;42.990;21.954;2023-04-10T01:12:32;53.95;;;41.50;;
55268;SDS011;41131;42.990;21.954;2023-04-10T01:15:15;52.85;;;40.42;;
55268;SDS011;41131;42.990;21.954;2023-04-10T01:17:45;51.72;;;41.25;;
55268;SDS011;41131;42.990;21.954;2023-04-10T01:20:15;49.63;;;39.88;;
55268;SDS011;41131;42.990;21.954;2023-04-10T01:25:38;41.70;;;34.67;;
55268;SDS011;41131;42.990;21.954;2023-04-10T01:30:44;43.25;;;35.25;;
55268;SDS011;41131;42.990;21.954;2023-04-10T01:33:11;40.88;;;33.83;;
55268;SDS011;41131;42.990;21.954;2023-04-10T01:35:37;38.35;;;32.20;;
55268;SDS011;41131;42.990;21.954;2023-04-10T01:38:05;47.60;;;37.95;;
55268;SDS011;41131;42.990;21.954;2023-04-10T01:40:32;44.00;;;35.83;;
55268;SDS011;41131;42.990;21.954;2023-04-10T01:42:59;42.92;;;34.65;;
55268;SDS011;41131;42.990;21.954;2023-04-10T01:45:27;43.50;;;35.60;;
55268;SDS011;41131;42.990;21.954;2023-04-10T01:47:53;42.63;;;35.10;;
55268;SDS011;41131;42.990;21.954;2023-04-10T01:50:20;52.17;;;38.47;;
55268;SDS011;41131;42.990;21.954;2023-04-10T01:52:52;48.00;;;38.45;;
55268;SDS011;41131;42.990;21.954;2023-04-10T01:55:21;53.78;;;39.30;;
55268;SDS011;41131;42.990;21.954;2023-04-10T01:57:47;46.47;;;36.88;;
55268;SDS011;41131;42.990;21.954;2023-04-10T02:00:14;44.35;;;35.30;;
55268;SDS011;41131;42.990;21.954;2023-04-10T02:02:41;41.17;;;35.25;;
55268;SDS011;41131;42.990;21.954;2023-04-10T02:05:07;40.92;;;33.55;;
55268;SDS011;41131;42.990;21.954;2023-04-10T02:10:27;40.38;;;32.97;;
55268;SDS011;41131;42.990;21.954;2023-04-10T02:12:51;38.45;;;32.65;;
55268;SDS011;41131;42.990;21.954;2023-04-10T02:15:20;42.53;;;32.92;;
55268;SDS011;41131;42.990;21.954;2023-04-10T02:17:47;38.05;;;31.92;;
55268;SDS011;41131;42.990;21.954;2023-04-10T02:20:14;36.47;;;31.30;;
55268;SDS011;41131;42.990;21.954;2023-04-10T02:22:40;36.85;;;31.05;;
55268;SDS011;41131;42.990;21.954;2023-04-10T02:25:10;36.42;;;30.80;;
55268;SDS011;41131;42.990;21.954;2023-04-10T02:27:37;35.28;;;29.98;;
55268;SDS011;41131;42.990;21.954;2023-04-10T02:30:03;33.67;;;29.58;;
55268;SDS011;41131;42.990;21.954;2023-04-10T02:32:31;35.80;;;30.58;;
55268;SDS011;41131;42.990;21.954;2023-04-10T02:34:58;35.42;;;29.35;;
55268;SDS011;41131;42.990;21.954;2023-04-10T02:37:25;36.13;;;29.80;;
55268;SDS011;41131;42.990;21.954;2023-04-10T02:39:51;35.42;;;29.95;;
55268;SDS011;41131;42.990;21.954;2023-04-10T02:42:19;37.53;;;29.63;;
55268;SDS011;41131;42.990;21.954;2023-04-10T02:44:46;35.83;;;30.40;;
55268;SDS011;41131;42.990;21.954;2023-04-10T02:47:12;35.35;;;29.63;;
55268;SDS011;41131;42.990;21.954;2023-04-10T02:49:39;34.30;;;29.33;;
55268;SDS011;41131;42.990;21.954;2023-04-10T02:52:06;37.13;;;30.83;;
55268;SDS011;41131;42.990;21.954;2023-04-10T02:54:32;36.15;;;30.33;;
55268;SDS011;41131;42.990;21.954;2023-04-10T02:56:58;35.30;;;29.75;;
55268;SDS011;41131;42.990;21.954;2023-04-10T02:59:25;35.63;;;29.55;;
55268;SDS011;41131;42.990;21.954;2023-04-10T03:01:51;36.00;;;30.95;;
55268;SDS011;41131;42.990;21.954;2023-04-10T03:04:17;35.85;;;30.15;;
55268;SDS011;41131;42.990;21.954;2023-04-10T03:06:44;37.35;;;31.15;;
55268;SDS011;41131;42.990;21.954;2023-04-10T03:09:10;36.97;;;30.98;;
55268;SDS011;41131;42.990;21.954;2023-04-10T03:11:36;38.67;;;30.58;;
55268;SDS011;41131;42.990;21.954;2023-04-10T03:14:03;35.67;;;30.60;;
55268;SDS011;41131;42.990;21.954;2023-04-10T03:16:29;34.45;;;29.52;;
55268;SDS011;41131;42.990;21.954;2023-04-10T03:18:55;34.83;;;29.67;;
55268;SDS011;41131;42.990;21.954;2023-04-10T03:21:21;37.58;;;28.67;;
55268;SDS011;41131;42.990;21.954;2023-04-10T03:23:47;38.47;;;32.03;;
55268;SDS011;41131;42.990;21.954;2023-04-10T03:26:13;36.25;;;29.88;;
55268;SDS011;41131;42.990;21.954;2023-04-10T03:28:39;37.28;;;30.58;;
55268;SDS011;41131;42.990;21.954;2023-04-10T03:31:05;36.08;;;31.08;;
55268;SDS011;41131;42.990;21.954;2023-04-10T03:33:31;39.50;;;31.77;;
55268;SDS011;41131;42.990;21.954;2023-04-10T03:35:57;37.45;;;31.95;;
55268;SDS011;41131;42.990;21.954;2023-04-10T03:38:24;39.50;;;31.88;;
55268;SDS011;41131;42.990;21.954;2023-04-10T03:40:50;41.33;;;33.55;;
55268;SDS011;41131;42.990;21.954;2023-04-10T03:43:16;44.45;;;35.25;;
55268;SDS011;41131;42.990;21.954;2023-04-10T03:45:42;46.92;;;40.28;;
55268;SDS011;41131;42.990;21.954;2023-04-10T03:48:08;50.70;;;38.45;;
55268;SDS011;41131;42.990;21.954;2023-04-10T03:50:34;49.35;;;41.38;;
55268;SDS011;41131;42.990;21.954;2023-04-10T03:53:00;49.65;;;39.97;;
55268;SDS011;41131;42.990;21.954;2023-04-10T03:55:26;49.72;;;38.30;;
55268;SDS011;41131;42.990;21.954;2023-04-10T03:57:52;47.40;;;38.55;;
55268;SDS011;41131;42.990;21.954;2023-04-10T04:00:19;45.20;;;37.10;;
55268;SDS011;41131;42.990;21.954;2023-04-10T04:02:45;45.92;;;35.88;;
55268;SDS011;41131;42.990;21.954;2023-04-10T04:05:11;42.00;;;35.42;;
55268;SDS011;41131;42.990;21.954;2023-04-10T04:07:37;44.28;;;36.05;;
55268;SDS011;41131;42.990;21.954;2023-04-10T04:10:03;50.85;;;41.65;;
55268;SDS011;41131;42.990;21.954;2023-04-10T04:12:30;49.70;;;43.03;;
55268;SDS011;41131;42.990;21.954;2023-04-10T04:14:56;52.75;;;42.30;;
55268;SDS011;41131;42.990;21.954;2023-04-10T04:17:22;40.88;;;34.13;;
55268;SDS011;41131;42.990;21.954;2023-04-10T04:19:49;41.83;;;34.08;;
55268;SDS011;41131;42.990;21.954;2023-04-10T04:22:15;60.47;;;45.92;;
55268;SDS011;41131;42.990;21.954;2023-04-10T04:24:41;45.15;;;36.30;;
55268;SDS011;41131;42.990;21.954;2023-04-10T04:27:07;51.17;;;39.13;;
55268;SDS011;41131;42.990;21.954;2023-04-10T04:29:33;42.00;;;33.28;;
55268;SDS011;41131;42.990;21.954;2023-04-10T04:31:59;40.15;;;32.17;;
55268;SDS011;41131;42.990;21.954;2023-04-10T04:34:25;36.95;;;30.40;;
55268;SDS011;41131;42.990;21.954;2023-04-10T04:36:51;38.80;;;31.13;;
55268;SDS011;41131;42.990;21.954;2023-04-10T04:39:17;39.42;;;30.85;;
55268;SDS011;41131;42.990;21.954;2023-04-10T04:41:44;37.67;;;31.13;;
55268;SDS011;41131;42.990;21.954;2023-04-10T04:44:10;37.63;;;32.15;;
55268;SDS011;41131;42.990;21.954;2023-04-10T04:46:36;45.20;;;36.92;;
55268;SDS011;41131;42.990;21.954;2023-04-10T04:49:02;48.40;;;37.47;;
55268;SDS011;41131;42.990;21.954;2023-04-10T04:51:28;49.00;;;39.80;;
55268;SDS011;41131;42.990;21.954;2023-04-10T04:53:54;124.47;;;111.40;;
55268;SDS011;41131;42.990;21.954;2023-04-10T04:56:20;113.10;;;86.07;;
55268;SDS011;41131;42.990;21.954;2023-04-10T04:58:46;60.15;;;49.20;;
55268;SDS011;41131;42.990;21.954;2023-04-10T05:01:12;49.40;;;38.90;;
55268;SDS011;41131;42.990;21.954;2023-04-10T05:03:38;50.05;;;41.95;;
55268;SDS011;41131;42.990;21.954;2023-04-10T05:06:05;50.42;;;40.35;;
55268;SDS011;41131;42.990;21.954;2023-04-10T05:08:31;52.05;;;43.10;;
55268;SDS011;41131;42.990;21.954;2023-04-10T05:10:57;65.75;;;58.75;;
55268;SDS011;41131;42.990;21.954;2023-04-10T05:13:23;45.00;;;37.95;;
55268;SDS011;41131;42.990;21.954;2023-04-10T05:15:49;256.75;;;162.43;;
55268;SDS011;41131;42.990;21.954;2023-04-10T05:18:15;241.05;;;154.98;;
55268;SDS011;41131;42.990;21.954;2023-04-10T05:20:44;65.38;;;44.90;;
55268;SDS011;41131;42.990;21.954;2023-04-10T05:23:11;53.35;;;41.35;;
55268;SDS011;41131;42.990;21.954;2023-04-10T05:25:38;131.13;;;69.90;;
55268;SDS011;41131;42.990;21.954;2023-04-10T05:28:05;50.95;;;36.97;;
55268;SDS011;41131;42.990;21.954;2023-04-10T05:30:31;47.05;;;33.45;;
55268;SDS011;41131;42.990;21.954;2023-04-10T05:32:57;92.70;;;57.40;;
55268;SDS011;41131;42.990;21.954;2023-04-10T05:35:23;60.78;;;43.30;;
55268;SDS011;41131;42.990;21.954;2023-04-10T05:37:49;41.72;;;32.42;;
55268;SDS011;41131;42.990;21.954;2023-04-10T05:40:15;41.92;;;31.77;;
55268;SDS011;41131;42.990;21.954;2023-04-10T05:42:41;41.53;;;29.98;;
55268;SDS011;41131;42.990;21.954;2023-04-10T05:45:07;50.58;;;36.85;;
55268;SDS011;41131;42.990;21.954;2023-04-10T05:47:33;89.85;;;55.80;;
55268;SDS011;41131;42.990;21.954;2023-04-10T05:50:00;102.22;;;69.35;;
55268;SDS011;41131;42.990;21.954;2023-04-10T05:52:26;94.47;;;64.93;;
55268;SDS011;41131;42.990;21.954;2023-04-10T05:54:52;107.07;;;60.15;;
55268;SDS011;41131;42.990;21.954;2023-04-10T05:57:18;58.25;;;36.00;;
55268;SDS011;41131;42.990;21.954;2023-04-10T05:59:44;53.53;;;32.55;;
55268;SDS011;41131;42.990;21.954;2023-04-10T06:02:10;34.92;;;26.73;;
55268;SDS011;41131;42.990;21.954;2023-04-10T06:04:36;43.35;;;29.73;;
55268;SDS011;41131;42.990;21.954;2023-04-10T06:07:02;59.90;;;42.22;;
55268;SDS011;41131;42.990;21.954;2023-04-10T06:09:28;68.82;;;50.45;;
55268;SDS011;41131;42.990;21.954;2023-04-10T06:11:54;46.90;;;34.30;;
55268;SDS011;41131;42.990;21.954;2023-04-10T06:14:20;61.78;;;38.45;;
55268;SDS011;41131;42.990;21.954;2023-04-10T06:16:46;69.78;;;40.42;;
55268;SDS011;41131;42.990;21.954;2023-04-10T06:19:12;102.35;;;63.55;;
55268;SDS011;41131;42.990;21.954;2023-04-10T06:21:38;76.28;;;52.92;;
55268;SDS011;41131;42.990;21.954;2023-04-10T06:24:04;53.72;;;36.88;;
55268;SDS011;41131;42.990;21.954;2023-04-10T06:26:30;40.50;;;32.95;;
55268;SDS011;41131;42.990;21.954;2023-04-10T06:28:56;54.13;;;30.88;;
55268;SDS011;41131;42.990;21.954;2023-04-10T06:31:22;38.28;;;29.70;;
55268;SDS011;41131;42.990;21.954;2023-04-10T06:33:49;46.20;;;36.03;;
55268;SDS011;41131;42.990;21.954;2023-04-10T06:36:15;42.92;;;31.15;;
55268;SDS011;41131;42.990;21.954;2023-04-10T06:38:41;45.95;;;32.97;;
55268;SDS011;41131;42.990;21.954;2023-04-10T06:41:07;36.75;;;29.42;;
55268;SDS011;41131;42.990;21.954;2023-04-10T06:43:34;38.17;;;27.45;;
55268;SDS011;41131;42.990;21.954;2023-04-10T06:46:02;64.22;;;43.55;;
55268;SDS011;41131;42.990;21.954;2023-04-10T06:48:29;54.75;;;29.15;;
55268;SDS011;41131;42.990;21.954;2023-04-10T06:50:55;29.48;;;25.90;;
55268;SDS011;41131;42.990;21.954;2023-04-10T06:53:21;49.55;;;36.38;;
55268;SDS011;41131;42.990;21.954;2023-04-10T06:55:47;36.40;;;28.83;;
55268;SDS011;41131;42.990;21.954;2023-04-10T06:58:13;49.63;;;32.00;;
55268;SDS011;41131;42.990;21.954;2023-04-10T07:00:39;39.38;;;31.58;;
55268;SDS011;41131;42.990;21.954;2023-04-10T07:03:06;37.47;;;29.73;;
55268;SDS011;41131;42.990;21.954;2023-04-10T07:05:32;42.85;;;31.40;;
55268;SDS011;41131;42.990;21.954;2023-04-10T07:07:58;63.20;;;50.45;;
55268;SDS011;41131;42.990;21.954;2023-04-10T07:10:24;43.92;;;35.85;;
55268;SDS011;41131;42.990;21.954;2023-04-10T07:12:50;30.48;;;24.73;;
55268;SDS011;41131;42.990;21.954;2023-04-10T07:15:16;53.53;;;36.45;;
55268;SDS011;41131;42.990;21.954;2023-04-10T07:17:42;58.63;;;35.85;;
55268;SDS011;41131;42.990;21.954;2023-04-10T07:20:09;36.50;;;28.38;;
55268;SDS011;41131;42.990;21.954;2023-04-10T07:22:35;40.97;;;30.63;;
55268;SDS011;41131;42.990;21.954;2023-04-10T07:25:01;35.17;;;28.20;;
55268;SDS011;41131;42.990;21.954;2023-04-10T07:27:27;47.67;;;32.63;;
55268;SDS011;41131;42.990;21.954;2023-04-10T07:29:53;45.42;;;28.50;;
55268;SDS011;41131;42.990;21.954;2023-04-10T07:32:21;39.10;;;26.83;;
55268;SDS011;41131;42.990;21.954;2023-04-10T07:34:47;43.85;;;39.05;;
55268;SDS011;41131;42.990;21.954;2023-04-10T07:37:13;72.22;;;37.17;;
55268;SDS011;41131;42.990;21.954;2023-04-10T07:39:39;55.92;;;34.47;;
55268;SDS011;41131;42.990;21.954;2023-04-10T07:42:05;44.50;;;27.50;;
55268;SDS011;41131;42.990;21.954;2023-04-10T07:44:31;37.78;;;27.52;;
55268;SDS011;41131;42.990;21.954;2023-04-10T07:46:57;47.45;;;29.20;;
55268;SDS011;41131;42.990;21.954;2023-04-10T07:49:23;49.83;;;29.10;;
55268;SDS011;41131;42.990;21.954;2023-04-10T07:51:49;29.35;;;26.10;;
55268;SDS011;41131;42.990;21.954;2023-04-10T07:54:15;50.15;;;26.13;;
55268;SDS011;41131;42.990;21.954;2023-04-10T07:56:41;49.65;;;36.58;;
55268;SDS011;41131;42.990;21.954;2023-04-10T07:59:07;40.90;;;30.10;;
55268;SDS011;41131;42.990;21.954;2023-04-10T08:01:33;53.38;;;31.27;;
55268;SDS011;41131;42.990;21.954;2023-04-10T08:04:01;52.25;;;31.23;;
55268;SDS011;41131;42.990;21.954;2023-04-10T08:06:27;33.08;;;27.50;;
55268;SDS011;41131;42.990;21.954;2023-04-10T08:08:53;41.70;;;26.00;;
55268;SDS011;41131;42.990;21.954;2023-04-10T08:11:23;35.65;;;26.05;;
55268;SDS011;41131;42.990;21.954;2023-04-10T08:13:50;30.85;;;25.48;;
55268;SDS011;41131;42.990;21.954;2023-04-10T08:16:17;58.90;;;29.23;;
55268;SDS011;41131;42.990;21.954;2023-04-10T08:18:44;35.25;;;26.88;;
55268;SDS011;41131;42.990;21.954;2023-04-10T08:21:11;35.50;;;31.85;;
55268;SDS011;41131;42.990;21.954;2023-04-10T08:23:37;57.00;;;33.80;;
55268;SDS011;41131;42.990;21.954;2023-04-10T08:26:03;33.88;;;27.88;;
55268;SDS011;41131;42.990;21.954;2023-04-10T08:28:29;43.70;;;28.05;;
55268;SDS011;41131;42.990;21.954;2023-04-10T08:30:56;32.15;;;26.55;;
55268;SDS011;41131;42.990;21.954;2023-04-10T08:33:22;33.15;;;26.08;;
55268;SDS011;41131;42.990;21.954;2023-04-10T08:35:48;34.28;;;27.80;;
55268;SDS011;41131;42.990;21.954;2023-04-10T08:38:14;30.95;;;24.85;;
55268;SDS011;41131;42.990;21.954;2023-04-10T08:40:41;38.15;;;25.52;;
55268;SDS011;41131;42.990;21.954;2023-04-10T08:43:08;28.70;;;24.00;;
55268;SDS011;41131;42.990;21.954;2023-04-10T08:45:34;59.65;;;45.20;;
55268;SDS011;41131;42.990;21.954;2023-04-10T08:48:01;32.97;;;27.67;;
55268;SDS011;41131;42.990;21.954;2023-04-10T08:50:27;61.17;;;46.10;;
55268;SDS011;41131;42.990;21.954;2023-04-10T08:52:55;48.60;;;28.77;;
55268;SDS011;41131;42.990;21.954;2023-04-10T08:55:24;28.77;;;25.73;;
55268;SDS011;41131;42.990;21.954;2023-04-10T08:57:51;33.53;;;29.10;;
55268;SDS011;41131;42.990;21.954;2023-04-10T09:00:17;31.02;;;26.00;;
55268;SDS011;41131;42.990;21.954;2023-04-10T09:02:43;35.97;;;28.70;;
55268;SDS011;41131;42.990;21.954;2023-04-10T09:05:10;34.25;;;29.40;;
55268;SDS011;41131;42.990;21.954;2023-04-10T09:07:37;31.52;;;28.33;;
55268;SDS011;41131;42.990;21.954;2023-04-10T09:10:04;31.58;;;28.25;;
55268;SDS011;41131;42.990;21.954;2023-04-10T09:12:41;33.15;;;28.88;;
55268;SDS011;41131;42.990;21.954;2023-04-10T09:15:07;45.30;;;31.77;;
55268;SDS011;41131;42.990;21.954;2023-04-10T09:17:33;42.78;;;37.22;;
55268;SDS011;41131;42.990;21.954;2023-04-10T09:19:59;39.67;;;34.35;;
55268;SDS011;41131;42.990;21.954;2023-04-10T09:22:31;44.63;;;32.92;;
55268;SDS011;41131;42.990;21.954;2023-04-10T09:24:58;39.63;;;31.98;;
55268;SDS011;41131;42.990;21.954;2023-04-10T09:27:28;47.22;;;31.38;;
55268;SDS011;41131;42.990;21.954;2023-04-10T09:29:55;40.70;;;29.65;;
55268;SDS011;41131;42.990;21.954;2023-04-10T09:32:40;44.80;;;28.23;;
55268;SDS011;41131;42.990;21.954;2023-04-10T09:35:07;36.30;;;27.00;;
55268;SDS011;41131;42.990;21.954;2023-04-10T09:37:36;32.17;;;28.77;;
55268;SDS011;41131;42.990;21.954;2023-04-10T09:40:03;29.40;;;26.30;;
55268;SDS011;41131;42.990;21.954;2023-04-10T09:42:33;33.15;;;26.15;;
55268;SDS011;41131;42.990;21.954;2023-04-10T09:45:00;39.55;;;33.13;;
55268;SDS011;41131;42.990;21.954;2023-04-10T09:47:26;35.42;;;31.70;;
55268;SDS011;41131;42.990;21.954;2023-04-10T09:49:53;34.88;;;30.05;;
55268;SDS011;41131;42.990;21.954;2023-04-10T09:55:15;39.53;;;31.63;;
55268;SDS011;41131;42.990;21.954;2023-04-10T09:57:41;41.22;;;34.83;;
55268;SDS011;41131;42.990;21.954;2023-04-10T10:00:09;28.85;;;25.75;;
55268;SDS011;41131;42.990;21.954;2023-04-10T10:02:36;35.50;;;29.10;;
55268;SDS011;41131;42.990;21.954;2023-04-10T10:05:04;36.53;;;31.00;;
55268;SDS011;41131;42.990;21.954;2023-04-10T10:07:30;37.47;;;32.35;;
55268;SDS011;41131;42.990;21.954;2023-04-10T10:09:56;42.20;;;36.53;;
55268;SDS011;41131;42.990;21.954;2023-04-10T10:12:24;31.80;;;28.45;;
55268;SDS011;41131;42.990;21.954;2023-04-10T10:17:49;37.45;;;30.42;;
55268;SDS011;41131;42.990;21.954;2023-04-10T10:20:20;33.10;;;29.52;;
55268;SDS011;41131;42.990;21.954;2023-04-10T10:22:47;27.98;;;25.08;;
55268;SDS011;41131;42.990;21.954;2023-04-10T10:25:14;26.35;;;23.58;;
55268;SDS011;41131;42.990;21.954;2023-04-10T10:27:40;29.83;;;24.73;;
55268;SDS011;41131;42.990;21.954;2023-04-10T10:30:07;23.00;;;20.63;;
55268;SDS011;41131;42.990;21.954;2023-04-10T10:32:36;41.00;;;35.15;;
55268;SDS011;41131;42.990;21.954;2023-04-10T10:35:02;41.35;;;26.67;;
55268;SDS011;41131;42.990;21.954;2023-04-10T10:37:28;45.42;;;26.20;;
55268;SDS011;41131;42.990;21.954;2023-04-10T10:40:30;44.05;;;28.60;;
55268;SDS011;41131;42.990;21.954;2023-04-10T10:45:30;37.90;;;27.10;;
55268;SDS011;41131;42.990;21.954;2023-04-10T10:47:57;41.22;;;23.55;;
55268;SDS011;41131;42.990;21.954;2023-04-10T10:50:23;61.92;;;46.55;;
55268;SDS011;41131;42.990;21.954;2023-04-10T10:52:52;48.63;;;36.55;;
55268;SDS011;41131;42.990;21.954;2023-04-10T10:57:51;38.53;;;31.55;;
55268;SDS011;41131;42.990;21.954;2023-04-10T11:00:18;41.78;;;33.13;;
55268;SDS011;41131;42.990;21.954;2023-04-10T11:02:44;63.40;;;33.05;;
55268;SDS011;41131;42.990;21.954;2023-04-10T11:05:28;43.97;;;36.60;;
55268;SDS011;41131;42.990;21.954;2023-04-10T11:13:16;54.50;;;34.55;;
55268;SDS011;41131;42.990;21.954;2023-04-10T11:15:42;69.75;;;59.75;;
55268;SDS011;41131;42.990;21.954;2023-04-10T11:18:09;60.30;;;46.15;;
55268;SDS011;41131;42.990;21.954;2023-04-10T11:21:07;57.13;;;40.45;;
55268;SDS011;41131;42.990;21.954;2023-04-10T11:23:22;32.92;;;29.42;;
55268;SDS011;41131;42.990;21.954;2023-04-10T11:31:20;38.80;;;27.60;;
55268;SDS011;41131;42.990;21.954;2023-04-10T11:36:18;44.40;;;33.63;;
55268;SDS011;41131;42.990;21.954;2023-04-10T11:41:29;15.63;;;14.02;;
55268;SDS011;41131;42.990;21.954;2023-04-10T11:43:59;40.65;;;36.33;;
55268;SDS011;41131;42.990;21.954;2023-04-10T11:46:26;46.78;;;41.35;;
55268;SDS011;41131;42.990;21.954;2023-04-10T11:48:57;83.45;;;74.40;;
55268;SDS011;41131;42.990;21.954;2023-04-10T11:51:24;88.38;;;74.90;;
55268;SDS011;41131;42.990;21.954;2023-04-10T11:54:09;74.60;;;66.50;;
55268;SDS011;41131;42.990;21.954;2023-04-10T11:59:02;92.13;;;76.57;;
55268;SDS011;41131;42.990;21.954;2023-04-10T12:01:32;98.13;;;79.15;;
55268;SDS011;41131;42.990;21.954;2023-04-10T12:03:58;95.30;;;75.45;;
55268;SDS011;41131;42.990;21.954;2023-04-10T12:06:25;63.38;;;55.22;;
55268;SDS011;41131;42.990;21.954;2023-04-10T12:08:52;64.88;;;53.13;;
55268;SDS011;41131;42.990;21.954;2023-04-10T12:11:19;73.65;;;58.22;;
55268;SDS011;41131;42.990;21.954;2023-04-10T12:13:45;63.00;;;50.65;;
55268;SDS011;41131;42.990;21.954;2023-04-10T12:16:12;60.33;;;52.80;;
55268;SDS011;41131;42.990;21.954;2023-04-10T12:18:38;56.15;;;48.17;;
55268;SDS011;41131;42.990;21.954;2023-04-10T12:21:04;41.58;;;36.05;;
55268;SDS011;41131;42.990;21.954;2023-04-10T12:23:31;34.78;;;30.58;;
55268;SDS011;41131;42.990;21.954;2023-04-10T12:28:32;90.65;;;38.03;;
55268;SDS011;41131;42.990;21.954;2023-04-10T12:30:58;545.33;;;54.40;;
55268;SDS011;41131;42.990;21.954;2023-04-10T12:33:24;36.53;;;29.85;;
55268;SDS011;41131;42.990;21.954;2023-04-10T12:35:51;37.90;;;30.10;;
55268;SDS011;41131;42.990;21.954;2023-04-10T12:38:37;36.25;;;30.15;;
55268;SDS011;41131;42.990;21.954;2023-04-10T12:41:03;104.28;;;76.47;;
55268;SDS011;41131;42.990;21.954;2023-04-10T12:43:34;45.72;;;36.92;;
55268;SDS011;41131;42.990;21.954;2023-04-10T12:46:01;40.10;;;35.33;;
55268;SDS011;41131;42.990;21.954;2023-04-10T12:48:28;25.52;;;22.50;;
55268;SDS011;41131;42.990;21.954;2023-04-10T12:50:54;33.80;;;25.80;;
55268;SDS011;41131;42.990;21.954;2023-04-10T12:53:21;31.52;;;24.58;;
55268;SDS011;41131;42.990;21.954;2023-04-10T12:56:03;44.58;;;32.97;;
55268;SDS011;41131;42.990;21.954;2023-04-10T12:58:30;31.98;;;28.50;;
55268;SDS011;41131;42.990;21.954;2023-04-10T13:01:04;24.55;;;22.13;;
55268;SDS011;41131;42.990;21.954;2023-04-10T13:03:32;26.20;;;23.45;;
55268;SDS011;41131;42.990;21.954;2023-04-10T13:05:58;32.63;;;28.00;;
55268;SDS011;41131;42.990;21.954;2023-04-10T13:08:24;29.13;;;25.40;;
55268;SDS011;41131;42.990;21.954;2023-04-10T13:10:50;26.05;;;22.75;;
55268;SDS011;41131;42.990;21.954;2023-04-10T13:13:16;42.35;;;34.88;;
55268;SDS011;41131;42.990;21.954;2023-04-10T13:15:43;30.25;;;25.25;;
55268;SDS011;41131;42.990;21.954;2023-04-10T13:18:09;30.48;;;27.23;;
55268;SDS011;41131;42.990;21.954;2023-04-10T13:20:36;28.25;;;25.13;;
55268;SDS011;41131;42.990;21.954;2023-04-10T13:23:02;29.55;;;25.25;;
55268;SDS011;41131;42.990;21.954;2023-04-10T13:25:32;51.33;;;35.38;;
55268;SDS011;41131;42.990;21.954;2023-04-10T13:27:59;52.40;;;41.45;;
55268;SDS011;41131;42.990;21.954;2023-04-10T13:30:25;46.67;;;36.28;;
55268;SDS011;41131;42.990;21.954;2023-04-10T13:32:52;35.38;;;29.85;;
55268;SDS011;41131;42.990;21.954;2023-04-10T13:35:18;29.70;;;26.40;;
55268;SDS011;41131;42.990;21.954;2023-04-10T13:37:44;30.17;;;26.17;;
55268;SDS011;41131;42.990;21.954;2023-04-10T13:40:10;32.85;;;29.25;;
55268;SDS011;41131;42.990;21.954;2023-04-10T13:42:36;31.67;;;23.80;;
55268;SDS011;41131;42.990;21.954;2023-04-10T13:45:02;29.90;;;25.25;;
55268;SDS011;41131;42.990;21.954;2023-04-10T13:47:28;34.20;;;28.35;;
55268;SDS011;41131;42.990;21.954;2023-04-10T13:49:54;37.85;;;30.27;;
55268;SDS011;41131;42.990;21.954;2023-04-10T13:52:21;40.08;;;34.10;;
55268;SDS011;41131;42.990;21.954;2023-04-10T13:54:47;29.13;;;24.23;;
55268;SDS011;41131;42.990;21.954;2023-04-10T13:57:13;38.15;;;21.27;;
55268;SDS011;41131;42.990;21.954;2023-04-10T13:59:39;74.63;;;46.63;;
55268;SDS011;41131;42.990;21.954;2023-04-10T14:02:05;45.30;;;25.75;;
55268;SDS011;41131;42.990;21.954;2023-04-10T14:04:31;23.23;;;19.25;;
55268;SDS011;41131;42.990;21.954;2023-04-10T14:06:57;26.55;;;16.67;;
55268;SDS011;41131;42.990;21.954;2023-04-10T14:09:24;22.77;;;20.33;;
55268;SDS011;41131;42.990;21.954;2023-04-10T14:11:51;31.75;;;26.35;;
55268;SDS011;41131;42.990;21.954;2023-04-10T14:14:17;25.08;;;22.38;;
55268;SDS011;41131;42.990;21.954;2023-04-10T14:16:43;33.15;;;23.15;;
55268;SDS011;41131;42.990;21.954;2023-04-10T14:19:09;26.50;;;20.77;;
55268;SDS011;41131;42.990;21.954;2023-04-10T14:21:35;31.15;;;24.27;;
55268;SDS011;41131;42.990;21.954;2023-04-10T14:24:01;26.80;;;21.00;;
55268;SDS011;41131;42.990;21.954;2023-04-10T14:26:27;25.83;;;22.52;;
55268;SDS011;41131;42.990;21.954;2023-04-10T14:28:53;27.95;;;22.98;;
55268;SDS011;41131;42.990;21.954;2023-04-10T14:31:19;30.25;;;22.83;;
55268;SDS011;41131;42.990;21.954;2023-04-10T14:33:45;29.52;;;23.30;;
55268;SDS011;41131;42.990;21.954;2023-04-10T14:36:11;32.65;;;27.42;;
55268;SDS011;41131;42.990;21.954;2023-04-10T14:38:38;33.90;;;28.92;;
55268;SDS011;41131;42.990;21.954;2023-04-10T14:41:04;30.15;;;24.13;;
55268;SDS011;41131;42.990;21.954;2023-04-10T14:43:30;31.35;;;24.17;;
55268;SDS011;41131;42.990;21.954;2023-04-10T14:45:56;38.00;;;29.77;;
55268;SDS011;41131;42.990;21.954;2023-04-10T14:48:22;35.58;;;27.92;;
55268;SDS011;41131;42.990;21.954;2023-04-10T14:50:48;61.40;;;42.38;;
55268;SDS011;41131;42.990;21.954;2023-04-10T14:53:14;39.10;;;29.48;;